Time;durP1;ratioP1;P1;durP2;ratioP2;P2;SDS_P1;SDS_P2;PMS_P1;PMS_P2;Temp;Humidity;BMP_temperature;BMP_pressure;BME280_temperature;BME280_humidity;BME280_pressure;Samples;Min_cycle;Max_cycle;Signal;HPM_P1;HPM_P2
2023/08/07 00:00:40;;;;;;;17.73;3.80;;;;;;;12.54;100.00;101232.03;6218665;23;20035;-85
2023/08/07 00:03:05;;;;;;;12.10;3.47;;;;;;;12.48;100.00;101225.53;6192153;23;20051;-85
2023/08/07 00:05:30;;;;;;;13.65;3.50;;;;;;;12.40;100.00;101206.91;6191758;23;20000;-85
2023/08/07 00:07:56;;;;;;;12.73;3.60;;;;;;;12.40;100.00;101212.22;6191875;23;20008;-85
2023/08/07 00:10:22;;;;;;;15.43;3.95;;;;;;;12.57;100.00;101230.84;6191835;23;20015;-86
2023/08/07 00:12:47;;;;;;;14.80;3.88;;;;;;;12.49;100.00;101221.06;6218847;23;20004;-86
2023/08/07 00:15:12;;;;;;;15.77;3.80;;;;;;;12.37;100.00;101215.19;6191616;23;20397;-85
2023/08/07 00:17:38;;;;;;;10.40;3.78;;;;;;;12.39;100.00;101226.53;6218561;23;20084;-86
2023/08/07 00:20:04;;;;;;;15.13;4.13;;;;;;;12.29;100.00;101231.97;6218463;23;20421;-83
2023/08/07 00:22:29;;;;;;;14.13;3.60;;;;;;;12.47;100.00;101258.44;6218704;23;20030;-86
2023/08/07 00:24:55;;;;;;;13.82;3.88;;;;;;;12.40;100.00;101244.16;6218201;23;20043;-87
2023/08/07 00:27:20;;;;;;;15.93;3.88;;;;;;;12.42;100.00;101252.78;6192430;23;20015;-86
2023/08/07 00:29:45;;;;;;;19.30;4.10;;;;;;;12.24;100.00;101237.78;6191983;23;20452;-88
2023/08/07 00:32:11;;;;;;;14.07;4.05;;;;;;;12.35;100.00;101267.72;6218657;23;20036;-88
2023/08/07 00:34:36;;;;;;;17.27;4.03;;;;;;;12.14;100.00;101229.13;6218548;23;20425;-89
2023/08/07 00:37:01;;;;;;;11.57;3.60;;;;;;;12.14;100.00;101217.66;6219193;23;20083;-90
2023/08/07 00:39:27;;;;;;;10.40;3.55;;;;;;;12.28;100.00;101240.13;6192528;23;20008;-88
2023/08/07 00:41:52;;;;;;;14.50;3.47;;;;;;;12.13;100.00;101222.13;6219081;23;20005;-87
2023/08/07 00:44:18;;;;;;;14.40;4.00;;;;;;;12.05;100.00;101211.50;6192202;23;20000;-88
2023/08/07 00:46:46;;;;;;;12.25;3.42;;;;;;;12.14;100.00;101223.78;6191940;23;20010;-88
2023/08/07 00:49:12;;;;;;;12.13;3.20;;;;;;;12.07;100.00;101234.25;6191777;23;20007;-86
2023/08/07 00:51:39;;;;;;;13.75;3.45;;;;;;;12.24;100.00;101261.72;6192445;23;20083;-88
2023/08/07 00:54:09;;;;;;;10.05;3.22;;;;;;;12.31;100.00;101266.38;6192061;23;20012;-85
2023/08/07 00:56:35;;;;;;;10.20;3.08;;;;;;;12.01;100.00;101234.03;6218777;23;20083;-88
2023/08/07 00:59:01;;;;;;;12.35;3.33;;;;;;;12.10;100.00;101252.53;6218821;23;20004;-89
2023/08/07 01:01:27;;;;;;;7.78;3.10;;;;;;;12.02;100.00;101227.72;6218440;23;20054;-89
2023/08/07 01:03:55;;;;;;;9.63;3.15;;;;;;;12.12;100.00;101236.44;6191880;23;20339;-88
2023/08/07 01:06:20;;;;;;;9.82;3.10;;;;;;;12.13;100.00;101239.94;6218794;23;20080;-86
2023/08/07 01:08:46;;;;;;;13.57;3.47;;;;;;;12.08;100.00;101235.06;6218731;23;20080;-88
2023/08/07 01:11:22;;;;;;;12.23;3.70;;;;;;;12.22;100.00;101253.09;6218818;23;20388;-89
2023/08/07 01:14:00;;;;;;;14.30;3.45;;;;;;;12.24;100.00;101251.09;6218596;23;20039;-88
2023/08/07 01:16:38;;;;;;;12.27;3.53;;;;;;;12.01;100.00;101231.38;6218958;23;20373;-88
2023/08/07 01:19:08;;;;;;;10.75;3.10;;;;;;;12.16;100.00;101267.03;6218583;23;20100;-89
2023/08/07 01:21:34;;;;;;;10.80;3.30;;;;;;;11.93;100.00;101232.16;6218469;23;20024;-88
2023/08/07 01:23:59;;;;;;;12.50;3.58;;;;;;;12.07;100.00;101244.06;6218623;23;20004;-88
2023/08/07 01:26:25;;;;;;;15.10;3.65;;;;;;;12.18;100.00;101251.72;6191395;23;20020;-87
2023/08/07 01:29:06;;;;;;;14.20;3.95;;;;;;;12.20;100.00;101257.72;6191680;23;20017;-88
2023/08/07 01:31:35;;;;;;;15.45;4.18;;;;;;;12.17;100.00;101254.53;6217911;23;20001;-87
2023/08/07 01:34:04;;;;;;;13.55;3.50;;;;;;;12.22;100.00;101261.06;6191381;23;20426;-88
2023/08/07 01:36:30;;;;;;;14.93;3.65;;;;;;;12.17;100.00;101260.69;6218455;23;20063;-88
2023/08/07 01:38:58;;;;;;;16.25;3.58;;;;;;;12.07;100.00;101244.06;6191364;23;20001;-87
2023/08/07 01:41:24;;;;;;;11.02;3.40;;;;;;;12.22;100.00;101263.72;6191158;23;20016;-86
2023/08/07 01:43:49;;;;;;;11.55;3.60;;;;;;;12.17;100.00;101255.38;6191577;23;20012;-88
2023/08/07 01:46:15;;;;;;;12.32;3.72;;;;;;;12.20;100.00;101260.38;6217592;23;20090;-88
2023/08/07 01:48:41;;;;;;;14.25;3.85;;;;;;;12.15;100.00;101252.06;6217981;23;20004;-85
2023/08/07 01:51:06;;;;;;;13.10;3.75;;;;;;;12.33;100.00;101280.38;6191021;23;20066;-85
2023/08/07 01:53:31;;;;;;;12.35;3.30;;;;;;;12.37;100.00;101281.69;6217682;23;20040;-85
2023/08/07 01:55:57;;;;;;;15.48;3.65;;;;;;;12.26;100.00;101279.31;6217450;23;20058;-83
2023/08/07 01:58:22;;;;;;;13.15;3.35;;;;;;;12.16;100.00;101269.69;6217630;23;20036;-86
2023/08/07 02:00:47;;;;;;;9.20;3.20;;;;;;;12.22;100.00;101290.31;6217618;23;20008;-84
2023/08/07 02:03:13;;;;;;;14.52;3.20;;;;;;;12.10;100.00;101281.78;6217712;23;20009;-86
2023/08/07 02:05:38;;;;;;;17.90;3.60;;;;;;;12.09;100.00;101285.44;6217827;23;20004;-87
2023/08/07 02:08:04;;;;;;;14.27;3.45;;;;;;;12.00;100.00;101264.28;6218305;23;20005;-87
2023/08/07 02:10:30;;;;;;;10.88;3.45;;;;;;;12.15;100.00;101297.25;6191685;23;20491;-86
2023/08/07 02:12:58;;;;;;;14.52;3.40;;;;;;;12.00;100.00;101274.91;6190974;23;20424;-85
2023/08/07 02:15:24;;;;;;;10.70;3.30;;;;;;;12.11;100.00;101293.25;6216959;23;20001;-86
2023/08/07 02:17:49;;;;;;;11.65;3.75;;;;;;;12.08;100.00;101278.44;6215849;23;20023;-87
2023/08/07 02:20:14;;;;;;;13.55;3.65;;;;;;;12.00;100.00;101280.22;6216483;23;20037;-86
2023/08/07 02:22:40;;;;;;;13.75;3.78;;;;;;;11.97;100.00;101276.91;6217884;23;20023;-85
2023/08/07 02:25:05;;;;;;;15.43;3.88;;;;;;;11.97;100.00;101276.06;6191034;23;20067;-86
2023/08/07 02:27:31;;;;;;;16.35;3.65;;;;;;;11.96;100.00;101269.91;6217700;23;20338;-85
2023/08/07 02:29:56;;;;;;;10.30;3.38;;;;;;;12.05;100.00;101272.63;6217643;23;20008;-86
2023/08/07 02:32:22;;;;;;;14.68;4.05;;;;;;;12.01;100.00;101260.63;6190956;23;20235;-85
2023/08/07 02:34:47;;;;;;;17.20;4.07;;;;;;;12.10;100.00;101280.97;6217588;23;20015;-86
2023/08/07 02:37:12;;;;;;;13.27;3.90;;;;;;;12.15;100.00;101283.97;6217500;23;20013;-87
2023/08/07 02:39:38;;;;;;;14.20;3.85;;;;;;;12.01;100.00;101257.94;6217218;23;20487;-86
2023/08/07 02:42:03;;;;;;;13.05;3.80;;;;;;;12.07;100.00;101270.63;6217314;23;20000;-87
2023/08/07 02:44:29;;;;;;;16.27;3.95;;;;;;;11.98;100.00;101257.28;6217259;23;20043;-87
2023/08/07 02:46:54;;;;;;;14.07;3.83;;;;;;;12.09;100.00;101268.66;6217380;23;20337;-86
2023/08/07 02:49:19;;;;;;;12.70;3.92;;;;;;;12.18;100.00;101286.28;6217238;23;19997;-87
2023/08/07 02:51:45;;;;;;;14.30;3.80;;;;;;;12.11;100.00;101266.66;6217393;23;20481;-86
2023/08/07 02:54:10;;;;;;;13.73;4.18;;;;;;;12.12;100.00;101271.00;6217028;23;20012;-85
2023/08/07 02:56:36;;;;;;;14.35;3.65;;;;;;;12.05;100.00;101259.34;6217430;23;20138;-84
2023/08/07 02:59:01;;;;;;;13.85;3.97;;;;;;;12.18;100.00;101278.31;6218437;23;20027;-85
2023/08/07 03:01:27;;;;;;;15.52;3.90;;;;;;;12.07;100.00;101265.31;6219655;23;20439;-85
2023/08/07 03:03:53;;;;;;;10.93;3.60;;;;;;;12.12;100.00;101284.28;6192496;23;20009;-85
2023/08/07 03:06:18;;;;;;;13.30;3.58;;;;;;;12.18;100.00;101296.94;6219720;23;20012;-85
2023/08/07 03:08:43;;;;;;;14.85;3.88;;;;;;;12.13;100.00;101301.88;6219414;23;20001;-85
2023/08/07 03:11:09;;;;;;;14.90;4.07;;;;;;;12.11;100.00;101299.38;6192667;23;20005;-85
2023/08/07 03:13:34;;;;;;;13.63;3.83;;;;;;;12.11;100.00;101294.06;6192868;23;20005;-85
2023/08/07 03:16:01;;;;;;;12.18;3.92;;;;;;;12.02;100.00;101268.44;6219280;23;20028;-85
2023/08/07 03:18:27;;;;;;;13.82;3.97;;;;;;;12.03;100.00;101269.28;6193432;23;20017;-85
2023/08/07 03:20:53;;;;;;;11.38;4.10;;;;;;;12.07;100.00;101276.78;6220619;23;20083;-83
2023/08/07 03:23:19;;;;;;;15.00;3.72;;;;;;;12.11;100.00;101274.66;6193856;23;20011;-85
2023/08/07 03:25:44;;;;;;;16.10;4.13;;;;;;;12.15;100.00;101268.03;6194642;23;20024;-85
2023/08/07 03:28:09;;;;;;;11.30;3.90;;;;;;;12.16;100.00;101267.03;6195124;23;20380;-85
2023/08/07 03:30:35;;;;;;;15.75;4.10;;;;;;;12.22;100.00;101276.16;6208290;23;19997;-84
2023/08/07 03:33:00;;;;;;;12.07;3.75;;;;;;;12.13;100.00;101256.69;6234742;23;20314;-85
2023/08/07 03:35:25;;;;;;;9.65;3.72;;;;;;;12.18;100.00;101267.69;6225947;23;20008;-85
2023/08/07 03:37:51;;;;;;;11.32;4.07;;;;;;;12.01;100.00;101240.19;6220548;23;20143;-85
2023/08/07 03:40:16;;;;;;;13.27;3.75;;;;;;;12.15;100.00;101262.69;6231310;23;20071;-84
2023/08/07 03:42:41;;;;;;;11.05;3.80;;;;;;;12.22;100.00;101268.19;6202879;23;20064;-85
2023/08/07 03:45:07;;;;;;;14.85;4.10;;;;;;;12.14;100.00;101261.00;6219641;23;20444;-85
2023/08/07 03:47:32;;;;;;;10.93;3.70;;;;;;;12.22;100.00;101266.38;6219859;23;20461;-85
2023/08/07 03:49:58;;;;;;;14.35;4.30;;;;;;;12.22;100.00;101269.03;6220051;23;20015;-86
2023/08/07 03:52:23;;;;;;;12.43;3.95;;;;;;;12.26;100.00;101271.34;6192754;23;20000;-84
2023/08/07 03:54:48;;;;;;;13.30;3.70;;;;;;;12.19;100.00;101258.72;6217982;23;20005;-83
2023/08/07 03:57:14;;;;;;;12.57;4.22;;;;;;;12.22;100.00;101258.41;6217484;23;20012;-82
2023/08/07 03:59:39;;;;;;;13.98;4.10;;;;;;;12.19;100.00;101252.56;6217525;23;20004;-81
2023/08/07 04:02:04;;;;;;;9.15;3.75;;;;;;;12.31;100.00;101277.03;6216563;23;20023;-85
2023/08/07 04:04:30;;;;;;;14.75;4.47;;;;;;;12.35;100.00;101283.69;6216487;23;20005;-83
2023/08/07 04:06:55;;;;;;;13.23;4.28;;;;;;;12.28;100.00;101274.69;6216288;23;20012;-84
2023/08/07 04:09:20;;;;;;;13.93;4.00;;;;;;;12.28;100.00;101277.38;6215947;23;20432;-83
2023/08/07 04:11:46;;;;;;;12.60;4.30;;;;;;;12.29;100.00;101268.38;6216195;23;20024;-85
2023/08/07 04:14:11;;;;;;;15.23;4.20;;;;;;;12.28;100.00;101256.09;6216639;23;20005;-84
2023/08/07 04:16:37;;;;;;;15.50;4.30;;;;;;;12.46;100.00;101285.19;6216996;23;20080;-83
2023/08/07 04:19:02;;;;;;;13.80;4.22;;;;;;;12.38;100.00;101278.88;6217425;23;20009;-84
2023/08/07 04:21:28;;;;;;;14.82;3.63;;;;;;;12.30;100.00;101267.38;6190524;23;20011;-84
2023/08/07 04:23:53;;;;;;;12.75;3.92;;;;;;;12.42;100.00;101290.00;6217044;23;20019;-83
2023/08/07 04:26:18;;;;;;;10.98;3.90;;;;;;;12.41;100.00;101291.00;6216873;23;20024;-84
2023/08/07 04:28:44;;;;;;;12.73;3.88;;;;;;;12.32;100.00;101289.31;6217225;23;20094;-85
2023/08/07 04:31:09;;;;;;;12.23;4.15;;;;;;;12.27;100.00;101278.31;6190308;23;20005;-83
2023/08/07 04:33:36;;;;;;;13.40;4.05;;;;;;;12.34;100.00;101284.69;6190304;23;20055;-84
2023/08/07 04:36:01;;;;;;;12.45;4.10;;;;;;;12.41;100.00;101293.69;6217014;23;20001;-84
2023/08/07 04:38:26;;;;;;;14.10;4.43;;;;;;;12.27;100.00;101276.50;6217899;23;20432;-84
2023/08/07 04:40:52;;;;;;;7.68;3.53;;;;;;;12.34;100.00;101296.13;6217942;23;20008;-85
2023/08/07 04:43:20;;;;;;;15.52;4.18;;;;;;;12.39;100.00;101303.66;6216999;23;20004;-83
2023/08/07 04:45:45;;;;;;;15.18;4.00;;;;;;;12.35;100.00;101300.47;6217548;23;20017;-83
2023/08/07 04:48:11;;;;;;;12.90;3.90;;;;;;;12.37;100.00;101310.94;6216918;23;20425;-84
2023/08/07 04:50:37;;;;;;;10.68;3.60;;;;;;;12.26;100.00;101287.31;6216571;23;20479;-83
2023/08/07 04:53:02;;;;;;;13.02;3.92;;;;;;;12.41;100.00;101299.00;6190050;23;20472;-84
2023/08/07 04:55:27;;;;;;;10.70;3.45;;;;;;;12.38;100.00;101294.00;6216481;23;20306;-83
2023/08/07 04:57:54;;;;;;;8.77;3.40;;;;;;;12.41;100.00;101299.00;6216389;23;20083;-83
2023/08/07 05:00:21;;;;;;;13.13;3.55;;;;;;;12.40;100.00;101299.16;6189847;23;20008;-83
2023/08/07 05:02:47;;;;;;;10.63;3.40;;;;;;;12.38;100.00;101299.31;6216954;23;20337;-84
2023/08/07 05:05:14;;;;;;;11.93;3.53;;;;;;;12.44;100.00;101301.31;6216817;23;20063;-84
2023/08/07 05:07:39;;;;;;;11.05;3.40;;;;;;;12.40;100.00;101291.19;6216839;23;20001;-84
2023/08/07 05:10:05;;;;;;;11.20;3.20;;;;;;;12.51;100.00;101310.34;6190297;23;20009;-82
2023/08/07 05:12:31;;;;;;;12.38;3.00;;;;;;;12.45;100.00;101303.00;6216641;23;20051;-83
2023/08/07 05:14:56;;;;;;;6.72;2.80;;;;;;;12.48;100.00;101315.16;6216590;23;20417;-84
2023/08/07 05:17:21;;;;;;;10.00;3.50;;;;;;;12.38;100.00;101304.63;6216412;23;20024;-84
2023/08/07 05:19:47;;;;;;;9.10;3.03;;;;;;;12.47;100.00;101319.63;6189407;23;20043;-84
2023/08/07 05:22:12;;;;;;;12.10;3.20;;;;;;;12.49;100.00;101312.31;6216190;23;20091;-84
2023/08/07 05:24:40;;;;;;;9.93;3.58;;;;;;;12.41;100.00;101306.97;6215770;23;20024;-83
2023/08/07 05:27:08;;;;;;;10.85;3.20;;;;;;;12.53;100.00;101334.09;6216249;23;20007;-84
2023/08/07 05:29:33;;;;;;;12.95;3.40;;;;;;;12.39;100.00;101308.97;6216228;23;20112;-83
2023/08/07 05:31:59;;;;;;;10.77;3.30;;;;;;;12.40;100.00;101321.28;6216209;23;20004;-85
2023/08/07 05:34:24;;;;;;;13.82;3.38;;;;;;;12.46;100.00;101333.09;6215929;23;20027;-84
2023/08/07 05:36:49;;;;;;;12.52;3.72;;;;;;;12.48;100.00;101342.56;6190002;23;20325;-83
2023/08/07 05:39:15;;;;;;;13.40;3.45;;;;;;;12.51;100.00;101342.25;6216109;23;20011;-84
2023/08/07 05:41:40;;;;;;;12.27;3.53;;;;;;;12.52;100.00;101343.06;6189430;23;20027;-83
2023/08/07 05:44:05;;;;;;;11.52;3.47;;;;;;;12.48;100.00;101339.91;6215992;23;20151;-85
2023/08/07 05:46:31;;;;;;;13.43;3.67;;;;;;;12.42;100.00;101335.22;6215900;23;20011;-83
2023/08/07 05:48:56;;;;;;;13.05;3.67;;;;;;;12.55;100.00;101360.53;6216169;23;20012;-83
2023/08/07 05:51:21;;;;;;;9.77;3.47;;;;;;;12.45;100.00;101353.53;6215762;23;20018;-82
2023/08/07 05:53:47;;;;;;;13.27;3.90;;;;;;;12.57;100.00;101371.84;6189521;23;20013;-83
2023/08/07 05:56:12;;;;;;;14.68;4.25;;;;;;;12.49;100.00;101354.06;6216331;23;20012;-83
2023/08/07 05:58:37;;;;;;;13.55;3.38;;;;;;;12.50;100.00;101350.41;6189383;23;20011;-82
2023/08/07 06:01:03;;;;;;;13.32;3.58;;;;;;;12.56;100.00;101370.19;6215854;23;20004;-83
2023/08/07 06:03:28;;;;;;;16.83;3.60;;;;;;;12.51;100.00;101352.91;6189029;23;20004;-83
2023/08/07 06:05:54;;;;;;;14.55;3.55;;;;;;;12.47;100.00;101351.53;6216452;23;20004;-81
2023/08/07 06:08:19;;;;;;;13.30;3.15;;;;;;;12.56;100.00;101356.88;6215433;23;20004;-84
2023/08/07 06:10:44;;;;;;;12.10;3.65;;;;;;;12.55;100.00;101352.56;6216260;23;20008;-83
2023/08/07 06:13:10;;;;;;;11.30;3.63;;;;;;;12.70;100.00;101369.56;6215763;23;20004;-82
2023/08/07 06:15:35;;;;;;;13.70;3.53;;;;;;;12.65;100.00;101358.59;6188677;23;20411;-84
2023/08/07 06:18:00;;;;;;;12.90;3.42;;;;;;;12.62;100.00;101354.41;6215239;23;20015;-82
2023/08/07 06:20:26;;;;;;;12.50;3.22;;;;;;;12.73;100.00;101360.44;6216192;23;20008;-83
2023/08/07 06:22:51;;;;;;;12.77;3.42;;;;;;;12.77;100.00;101362.59;6215727;23;20009;-82
2023/08/07 06:25:19;;;;;;;10.38;3.05;;;;;;;12.98;100.00;101379.94;6216234;23;20058;-82
2023/08/07 06:27:44;;;;;;;11.77;3.05;;;;;;;12.89;100.00;101357.78;6215703;23;20012;-84
2023/08/07 06:30:11;;;;;;;10.98;3.30;;;;;;;12.96;100.00;101363.28;6215690;23;20001;-85
2023/08/07 06:32:36;;;;;;;9.85;3.05;;;;;;;13.14;100.00;101387.13;6188750;23;20415;-83
2023/08/07 06:35:02;;;;;;;11.27;3.40;;;;;;;13.19;100.00;101391.94;6215608;23;20028;-82
2023/08/07 06:37:28;;;;;;;12.98;3.10;;;;;;;13.13;100.00;101381.97;6215796;23;20444;-84
2023/08/07 06:39:53;;;;;;;13.07;3.20;;;;;;;13.21;100.00;101389.94;6188937;23;20012;-84
2023/08/07 06:42:19;;;;;;;16.40;3.10;;;;;;;13.30;100.00;101399.63;6215974;23;20005;-85
2023/08/07 06:44:44;;;;;;;12.45;3.33;;;;;;;13.26;100.00;101387.63;6215785;23;20028;-83
2023/08/07 06:47:10;;;;;;;14.80;3.30;;;;;;;13.31;100.00;101413.75;6215741;23;20414;-84
2023/08/07 06:49:36;;;;;;;17.27;3.30;;;;;;;13.34;100.00;101409.91;6189406;23;20059;-84
2023/08/07 06:52:02;;;;;;;12.77;2.83;;;;;;;13.22;100.00;101396.09;6215758;23;20012;-83
2023/08/07 06:54:27;;;;;;;13.40;3.20;;;;;;;13.17;100.00;101376.13;6188832;23;20333;-84
2023/08/07 06:56:52;;;;;;;11.27;2.80;;;;;;;13.24;100.00;101394.94;6216083;23;20011;-85
2023/08/07 06:59:18;;;;;;;14.52;3.15;;;;;;;13.33;100.00;101409.09;6215868;23;20005;-84
2023/08/07 07:01:43;;;;;;;11.60;2.90;;;;;;;13.29;100.00;101391.78;6215748;23;20007;-84
2023/08/07 07:04:09;;;;;;;11.13;2.90;;;;;;;13.47;100.00;101391.63;6215849;23;20414;-85
2023/08/07 07:06:34;;;;;;;15.38;3.10;;;;;;;13.61;99.36;101424.78;6215599;23;20043;-84
2023/08/07 07:08:59;;;;;;;13.23;3.05;;;;;;;13.54;98.77;101416.63;6215397;23;20008;-86
2023/08/07 07:11:25;;;;;;;11.50;3.00;;;;;;;13.57;99.53;101416.28;6215575;23;20077;-85
2023/08/07 07:13:51;;;;;;;11.50;2.78;;;;;;;13.64;99.01;101420.94;6215225;23;20000;-81
2023/08/07 07:16:21;;;;;;;8.98;2.50;;;;;;;13.64;99.72;101423.59;6215037;23;20526;-84
2023/08/07 07:18:50;;;;;;;13.38;3.45;;;;;;;13.69;99.46;101429.28;6215648;23;20020;-83
2023/08/07 07:21:16;;;;;;;10.52;2.88;;;;;;;13.72;100.00;101439.59;6215872;23;20007;-83
2023/08/07 07:23:41;;;;;;;12.63;2.88;;;;;;;13.72;100.00;101442.28;6215444;23;20028;-83
2023/08/07 07:26:06;;;;;;;9.95;3.33;;;;;;;13.67;100.00;101441.94;6215363;23;20079;-85
2023/08/07 07:28:32;;;;;;;11.30;2.95;;;;;;;13.68;98.73;101448.94;6215639;23;20337;-85
2023/08/07 07:30:57;;;;;;;12.35;3.28;;;;;;;13.62;100.00;101445.09;6215335;23;20005;-84
2023/08/07 07:33:23;;;;;;;11.70;3.00;;;;;;;13.61;99.15;101440.75;6215535;23;20087;-83
2023/08/07 07:35:48;;;;;;;13.10;2.97;;;;;;;13.61;99.30;101431.94;6215212;23;20036;-82
2023/08/07 07:38:15;;;;;;;12.82;3.17;;;;;;;13.75;98.85;101455.25;6215353;23;20011;-82
2023/08/07 07:40:40;;;;;;;10.70;2.97;;;;;;;13.76;99.64;101456.09;6215226;23;20004;-81
2023/08/07 07:43:06;;;;;;;12.20;2.92;;;;;;;13.87;99.78;101452.25;6216772;23;20434;-81
2023/08/07 07:45:33;;;;;;;10.02;2.80;;;;;;;13.91;99.65;101451.72;6218517;23;20005;-84
2023/08/07 07:48:00;;;;;;;11.35;2.70;;;;;;;14.04;99.21;101464.56;6219093;23;20004;-82
2023/08/07 07:50:25;;;;;;;9.93;2.60;;;;;;;14.04;98.73;101466.38;6218496;23;20013;-83
2023/08/07 07:52:50;;;;;;;12.10;3.08;;;;;;;13.97;95.02;101458.25;6217242;23;20445;-84
2023/08/07 07:55:16;;;;;;;13.60;3.10;;;;;;;13.82;95.63;101461.56;6217163;23;20000;-84
2023/08/07 07:57:41;;;;;;;13.90;3.05;;;;;;;13.94;98.73;101482.56;6217235;23;20019;-84
2023/08/07 08:00:10;;;;;;;9.80;2.85;;;;;;;13.81;100.00;101459.91;6190999;23;20043;-84
2023/08/07 08:02:36;;;;;;;11.68;2.92;;;;;;;13.97;100.00;101482.25;6217087;23;20028;-83
2023/08/07 08:05:02;;;;;;;15.75;3.42;;;;;;;13.94;100.00;101486.06;6217172;23;20076;-85
2023/08/07 08:07:27;;;;;;;11.52;3.00;;;;;;;14.01;100.00;101486.22;6190266;23;20012;-84
2023/08/07 08:09:52;;;;;;;14.85;3.13;;;;;;;14.06;98.31;101491.88;6216936;23;20004;-84
2023/08/07 08:12:18;;;;;;;11.90;3.00;;;;;;;14.10;97.93;101489.72;6217166;23;20390;-84
2023/08/07 08:14:43;;;;;;;15.05;3.20;;;;;;;14.22;97.25;101493.69;6217195;23;20143;-85
2023/08/07 08:17:08;;;;;;;16.17;3.75;;;;;;;14.33;95.48;101484.50;6217583;23;20005;-85
2023/08/07 08:19:33;;;;;;;13.00;2.95;;;;;;;14.59;97.37;101488.75;6217011;23;20505;-85
2023/08/07 08:21:59;;;;;;;11.27;3.10;;;;;;;14.83;95.12;101488.84;6217338;23;20059;-85
2023/08/07 08:24:24;;;;;;;10.45;2.55;;;;;;;14.91;91.32;101486.97;6217001;23;20008;-85
2023/08/07 08:26:49;;;;;;;11.07;2.70;;;;;;;15.07;90.44;101479.91;6216826;23;20004;-84
2023/08/07 08:29:15;;;;;;;11.50;2.80;;;;;;;15.15;90.83;101482.50;6217238;23;20054;-84
2023/08/07 08:31:40;;;;;;;10.27;2.50;;;;;;;15.06;84.61;101481.72;6216852;23;20011;-84
2023/08/07 08:34:05;;;;;;;7.97;2.80;;;;;;;15.25;84.19;101492.16;6216907;23;20024;-83
2023/08/07 08:36:31;;;;;;;11.15;3.00;;;;;;;15.33;84.43;101473.38;6216370;23;20079;-85
2023/08/07 08:38:56;;;;;;;10.43;2.60;;;;;;;15.48;80.89;101481.47;6216938;23;20330;-86
2023/08/07 08:41:22;;;;;;;6.68;2.40;;;;;;;15.58;80.46;101499.94;6216769;23;20001;-83
2023/08/07 08:43:52;;;;;;;6.47;2.30;;;;;;;15.64;77.78;101480.50;6216811;23;20008;-84
2023/08/07 08:46:19;;;;;;;11.65;2.58;;;;;;;15.76;75.49;101490.78;6217036;23;20440;-83
2023/08/07 08:48:50;;;;;;;7.85;2.60;;;;;;;15.86;75.39;101507.41;6217028;23;20005;-85
2023/08/07 08:51:18;;;;;;;6.75;2.45;;;;;;;15.91;72.46;101504.19;6216728;23;20014;-84
2023/08/07 08:53:45;;;;;;;5.30;2.25;;;;;;;15.69;73.32;101496.84;6217114;23;20087;-85
2023/08/07 08:56:11;;;;;;;8.45;2.35;;;;;;;15.55;73.13;101495.78;6215997;23;20016;-84
2023/08/07 08:58:37;;;;;;;7.38;2.50;;;;;;;15.60;70.27;101497.94;6216698;23;20036;-84
2023/08/07 09:01:04;;;;;;;5.50;2.30;;;;;;;15.62;72.14;101489.72;6216502;23;20004;-84
2023/08/07 09:03:30;;;;;;;9.20;2.63;;;;;;;15.80;76.66;101497.44;6216553;23;20052;-85
2023/08/07 09:05:59;;;;;;;7.32;2.60;;;;;;;15.90;71.84;101510.56;6216537;23;20074;-83
2023/08/07 09:08:29;;;;;;;9.95;2.97;;;;;;;15.87;69.82;101506.41;6217056;23;20004;-83
2023/08/07 09:10:54;;;;;;;7.72;2.30;;;;;;;15.79;71.52;101515.31;6216987;23;20083;-83
2023/08/07 09:13:23;;;;;;;7.93;2.28;;;;;;;15.68;73.39;101523.75;6216608;23;20016;-84
2023/08/07 09:15:50;;;;;;;6.80;2.50;;;;;;;15.53;73.73;101518.34;6216717;23;20004;-82
2023/08/07 09:18:17;;;;;;;10.07;2.70;;;;;;;15.43;73.62;101526.59;6189195;23;20017;-82
2023/08/07 09:20:43;;;;;;;11.40;2.78;;;;;;;15.48;76.76;101523.41;6189638;23;20004;-84
2023/08/07 09:23:08;;;;;;;14.73;2.97;;;;;;;15.65;75.33;101514.28;6216291;23;20015;-83
2023/08/07 09:25:34;;;;;;;8.45;2.60;;;;;;;15.92;76.78;101512.06;6216446;23;20028;-84
2023/08/07 09:28:06;;;;;;;6.75;2.50;;;;;;;16.06;71.55;101528.31;6216295;23;20004;-84
2023/08/07 09:30:34;;;;;;;7.90;2.55;;;;;;;16.12;71.31;101531.13;6216213;23;20015;-83
2023/08/07 09:33:00;;;;;;;6.90;2.60;;;;;;;16.12;73.46;101530.28;6216337;23;20023;-84
2023/08/07 09:35:26;;;;;;;7.00;2.42;;;;;;;16.22;70.13;101536.22;6215689;23;20054;-85
2023/08/07 09:37:52;;;;;;;11.40;2.60;;;;;;;16.35;71.74;101530.25;6216025;23;20048;-84
2023/08/07 09:40:18;;;;;;;7.25;2.63;;;;;;;16.53;68.94;101527.19;6189472;23;20008;-84
2023/08/07 09:42:44;;;;;;;10.00;2.78;;;;;;;16.62;62.22;101527.94;6216368;23;20079;-83
2023/08/07 09:45:20;;;;;;;6.45;2.50;;;;;;;16.66;64.00;101529.22;6216002;23;20020;-84
2023/08/07 09:47:57;;;;;;;7.57;2.50;;;;;;;16.50;66.38;101527.56;6216020;23;20011;-83
2023/08/07 09:50:22;;;;;;;5.80;2.42;;;;;;;16.56;64.69;101539.38;6215937;23;20004;-85
2023/08/07 09:52:49;;;;;;;8.05;2.60;;;;;;;16.56;67.37;101549.25;6216244;23;20326;-83
2023/08/07 09:55:15;;;;;;;7.05;2.40;;;;;;;16.39;66.20;101538.72;6215635;23;20087;-84
2023/08/07 09:57:43;;;;;;;6.28;2.70;;;;;;;16.50;69.69;101540.13;6215428;23;20377;-85
2023/08/07 10:00:12;;;;;;;7.88;2.70;;;;;;;16.42;67.81;101549.06;6189293;23;20008;-84
2023/08/07 10:02:38;;;;;;;8.52;2.83;;;;;;;16.39;68.48;101538.72;6215814;23;20011;-84
2023/08/07 10:05:08;;;;;;;8.20;2.40;;;;;;;16.61;68.91;101549.53;6189074;23;20008;-84
2023/08/07 10:07:34;;;;;;;11.02;2.80;;;;;;;16.69;66.35;101554.81;6215920;23;20364;-85
2023/08/07 10:10:00;;;;;;;6.32;2.35;;;;;;;16.66;62.68;101557.84;6216110;23;20013;-84
2023/08/07 10:12:26;;;;;;;10.90;2.92;;;;;;;16.71;65.80;101559.94;6215947;23;20460;-84
2023/08/07 10:14:53;;;;;;;9.48;2.63;;;;;;;16.88;64.45;101547.22;6215759;23;20008;-85
2023/08/07 10:17:21;;;;;;;5.10;2.38;;;;;;;16.94;59.57;101549.16;6215423;23;20075;-84
2023/08/07 10:19:46;;;;;;;6.53;2.40;;;;;;;16.93;62.53;101547.50;6215758;23;20472;-83
2023/08/07 10:22:15;;;;;;;4.70;2.25;;;;;;;17.11;59.71;101570.41;6216334;23;20024;-83
2023/08/07 10:24:43;;;;;;;6.35;2.13;;;;;;;17.11;57.50;101571.22;6189534;23;20005;-84
2023/08/07 10:27:11;;;;;;;10.20;2.65;;;;;;;16.90;58.78;101574.66;6215929;23;20000;-82
2023/08/07 10:29:38;;;;;;;6.95;2.63;;;;;;;16.72;61.38;101565.13;6215928;23;20032;-84
2023/08/07 10:32:06;;;;;;;7.72;2.33;;;;;;;16.48;59.42;101568.91;6216213;23;20020;-84
2023/08/07 10:34:34;;;;;;;7.70;2.42;;;;;;;16.46;63.10;101585.16;6215846;23;20004;-82
2023/08/07 10:37:00;;;;;;;8.57;2.72;;;;;;;16.65;66.05;101569.56;6215850;23;20444;-84
2023/08/07 10:39:26;;;;;;;6.93;2.70;;;;;;;16.80;59.70;101578.44;6216121;23;20032;-83
2023/08/07 10:41:55;;;;;;;6.18;2.50;;;;;;;16.93;63.18;101582.31;6216318;23;20372;-84
2023/08/07 10:44:33;;;;;;;8.00;2.30;;;;;;;17.04;57.84;101576.53;6215448;23;20068;-81
2023/08/07 10:46:58;;;;;;;4.65;2.50;;;;;;;17.20;60.65;101571.97;6216501;23;20001;-84
2023/08/07 10:49:38;;;;;;;9.52;2.80;;;;;;;17.54;61.70;101565.13;6216509;23;20008;-84
2023/08/07 10:52:11;;;;;;;3.90;2.30;;;;;;;17.57;57.80;101582.69;6216873;23;20043;-85
2023/08/07 10:54:43;;;;;;;8.90;2.72;;;;;;;17.63;59.37;101565.00;6217454;23;20333;-84
2023/08/07 10:57:13;;;;;;;6.38;2.67;;;;;;;17.73;59.81;101589.66;6217540;23;20028;-83
2023/08/07 10:59:43;;;;;;;4.53;2.30;;;;;;;17.74;56.55;101581.44;6218273;23;20379;-82
2023/08/07 11:02:12;;;;;;;3.80;2.17;;;;;;;17.73;55.92;101566.34;6220126;23;20039;-79
2023/08/07 11:04:38;;;;;;;4.90;2.50;;;;;;;17.82;56.79;101582.31;6233967;23;20008;-82
2023/08/07 11:07:03;;;;;;;5.13;2.30;;;;;;;17.86;56.69;101584.41;6227816;23;20051;-83
2023/08/07 11:09:29;;;;;;;4.68;2.38;;;;;;;17.79;52.41;101594.25;6228787;23;20004;-84